createdAt,value
2018-06-22T00:02:20.734Z,0.90
2018-06-22T00:04:48.266Z,0.80
2018-06-22T00:07:15.813Z,1.00
2018-06-22T00:09:43.343Z,0.80
2018-06-22T00:12:10.853Z,1.00
2018-06-22T00:14:38.376Z,1.53
2018-06-22T00:17:05.900Z,1.13
2018-06-22T00:19:33.427Z,1.00
2018-06-22T00:22:00.956Z,1.20
2018-06-22T00:24:28.455Z,1.20
2018-06-22T00:26:55.970Z,1.20
2018-06-22T00:29:23.502Z,0.80
2018-06-22T00:31:51.040Z,0.87
2018-06-22T00:34:18.595Z,1.00
2018-06-22T00:36:46.155Z,1.17
2018-06-22T00:39:13.687Z,1.20
2018-06-22T00:41:41.224Z,1.00
2018-06-22T00:44:08.763Z,1.20
2018-06-22T00:46:36.675Z,1.10
2018-06-22T00:49:04.229Z,1.10
2018-06-22T00:51:31.771Z,1.40
2018-06-22T00:54:12.263Z,1.37
2018-06-22T00:56:39.795Z,1.40
2018-06-22T00:59:07.381Z,1.10
2018-06-22T01:01:34.923Z,1.10
2018-06-22T01:04:02.473Z,0.90
2018-06-22T01:06:29.998Z,1.03
2018-06-22T01:08:57.538Z,1.10
2018-06-22T01:11:25.098Z,0.73
2018-06-22T01:13:52.640Z,1.10
2018-06-22T01:16:20.187Z,1.10
2018-06-22T01:18:47.754Z,0.93
2018-06-22T01:21:15.309Z,1.03
2018-06-22T01:23:42.873Z,1.20
2018-06-22T01:26:10.417Z,1.07
2018-06-22T01:28:37.989Z,0.90
2018-06-22T01:31:05.585Z,1.20
2018-06-22T01:33:33.144Z,0.90
2018-06-22T01:36:00.678Z,1.07
2018-06-22T01:38:28.207Z,1.20
2018-06-22T01:40:55.735Z,1.20
2018-06-22T01:43:23.280Z,1.10
2018-06-22T01:45:50.819Z,1.27
2018-06-22T01:48:18.372Z,1.10
2018-06-22T01:50:45.931Z,0.97
2018-06-22T01:53:13.474Z,0.90
2018-06-22T01:55:41.004Z,1.30
2018-06-22T01:58:08.538Z,0.93
2018-06-22T02:00:36.105Z,1.00
2018-06-22T02:03:03.651Z,1.20
2018-06-22T02:05:31.195Z,1.03
2018-06-22T02:07:58.734Z,1.00
2018-06-22T02:10:26.268Z,1.20
2018-06-22T02:12:53.783Z,1.23
2018-06-22T02:15:21.318Z,0.90
2018-06-22T02:17:48.851Z,0.70
2018-06-22T02:20:16.396Z,0.97
2018-06-22T02:22:43.927Z,1.20
2018-06-22T02:25:11.469Z,1.13
2018-06-22T02:27:38.996Z,1.03
2018-06-22T02:30:06.543Z,0.90
2018-06-22T02:32:34.068Z,1.00
2018-06-22T02:35:01.599Z,1.00
2018-06-22T02:37:29.124Z,1.00
2018-06-22T02:39:56.637Z,1.10
2018-06-22T02:42:24.161Z,1.10
2018-06-22T02:44:51.682Z,0.83
2018-06-22T02:47:19.190Z,0.97
2018-06-22T02:49:46.698Z,0.97
2018-06-22T02:52:14.369Z,0.97
2018-06-22T02:54:41.901Z,1.10
2018-06-22T02:57:09.423Z,1.20
2018-06-22T02:59:36.949Z,1.40
2018-06-22T03:02:04.489Z,1.10
2018-06-22T03:04:32.008Z,1.00
2018-06-22T03:06:59.529Z,1.20
2018-06-22T03:09:27.129Z,1.03
2018-06-22T03:11:54.667Z,1.20
2018-06-22T03:14:22.209Z,1.10
2018-06-22T03:16:49.755Z,1.00
2018-06-22T03:19:17.289Z,1.00
2018-06-22T03:21:44.845Z,1.30
2018-06-22T03:24:12.355Z,1.37
2018-06-22T03:26:39.904Z,1.03
2018-06-22T03:29:07.420Z,1.20
2018-06-22T03:31:34.977Z,1.20
2018-06-22T03:34:02.500Z,1.27
2018-06-22T03:36:30.036Z,1.40
2018-06-22T03:38:57.761Z,1.20
2018-06-22T03:41:25.298Z,1.33
2018-06-22T03:43:52.819Z,1.13
2018-06-22T03:46:20.361Z,1.50
2018-06-22T03:48:47.891Z,1.40
2018-06-22T03:51:15.432Z,1.37
2018-06-22T03:53:42.960Z,1.43
2018-06-22T03:56:10.545Z,1.40
2018-06-22T03:58:38.072Z,1.27
2018-06-22T04:01:05.623Z,1.10
2018-06-22T04:03:33.153Z,1.40
2018-06-22T04:06:00.696Z,1.40
2018-06-22T04:08:28.210Z,1.40
2018-06-22T04:10:55.735Z,1.07
2018-06-22T04:13:23.257Z,1.40
2018-06-22T04:15:50.818Z,1.40
2018-06-22T04:18:18.338Z,1.23
2018-06-22T04:20:45.859Z,1.50
2018-06-22T04:23:13.370Z,1.30
2018-06-22T04:25:40.887Z,1.47
2018-06-22T04:28:08.395Z,1.33
2018-06-22T04:30:35.927Z,2.13
2018-06-22T04:33:03.585Z,1.40
2018-06-22T04:35:31.121Z,1.23
2018-06-22T04:37:58.629Z,1.67
2018-06-22T04:40:26.161Z,1.40
2018-06-22T04:42:53.674Z,1.37
2018-06-22T04:45:21.206Z,1.50
2018-06-22T04:47:48.719Z,1.50
2018-06-22T04:50:16.227Z,1.40
2018-06-22T04:52:43.747Z,1.87
2018-06-22T04:55:11.263Z,1.60
2018-06-22T04:57:38.790Z,1.50
2018-06-22T05:00:06.340Z,1.30
2018-06-22T05:02:33.868Z,1.50
2018-06-22T05:05:01.375Z,1.30
2018-06-22T05:07:28.907Z,1.65
2018-06-22T05:09:56.437Z,1.10
2018-06-22T05:12:23.979Z,1.40
2018-06-22T05:14:51.503Z,1.72
2018-06-22T05:17:19.015Z,2.08
2018-06-22T05:19:46.514Z,1.52
2018-06-22T05:22:14.053Z,1.55
2018-06-22T05:24:41.568Z,1.17
2018-06-22T05:27:09.103Z,1.60
2018-06-22T05:29:36.623Z,1.42
2018-06-22T05:32:04.159Z,1.47
2018-06-22T05:34:31.682Z,1.33
2018-06-22T05:37:12.318Z,1.23
2018-06-22T05:39:39.831Z,1.40
2018-06-22T05:42:07.369Z,1.50
2018-06-22T05:44:34.883Z,1.60
2018-06-22T05:47:02.394Z,1.50
2018-06-22T05:49:29.920Z,1.63
2018-06-22T05:51:57.434Z,1.37
2018-06-22T05:54:25.146Z,1.50
2018-06-22T05:56:52.761Z,1.37
2018-06-22T05:59:20.207Z,1.60
2018-06-22T06:01:47.733Z,1.10
2018-06-22T06:04:15.347Z,1.27
2018-06-22T06:06:42.868Z,1.93
2018-06-22T06:09:11.315Z,1.60
2018-06-22T06:11:38.863Z,1.67
2018-06-22T06:14:06.418Z,1.30
2018-06-22T06:16:33.976Z,1.07
2018-06-22T06:19:01.534Z,1.47
2018-06-22T06:21:29.090Z,1.57
2018-06-22T06:23:56.622Z,1.43
2018-06-22T06:26:24.344Z,1.60
2018-06-22T06:28:51.887Z,1.00
2018-06-22T06:31:19.423Z,1.40
2018-06-22T06:33:47.010Z,1.20
2018-06-22T06:36:14.565Z,1.80
2018-06-22T06:38:42.151Z,1.40
2018-06-22T06:41:09.644Z,1.30
2018-06-22T06:43:37.190Z,1.63
2018-06-22T06:46:04.739Z,1.63
2018-06-22T06:48:32.287Z,1.30
2018-06-22T06:50:59.827Z,1.60
2018-06-22T06:53:27.362Z,1.63
2018-06-22T06:55:54.915Z,1.90
2018-06-22T06:58:22.447Z,1.40
2018-06-22T07:00:49.998Z,1.87
2018-06-22T07:03:17.584Z,1.20
2018-06-22T07:05:45.115Z,1.30
2018-06-22T07:08:12.727Z,1.30
2018-06-22T07:10:40.271Z,1.00
2018-06-22T07:13:07.799Z,1.87
2018-06-22T07:15:40.357Z,1.63
2018-06-22T07:18:08.646Z,1.27
2018-06-22T07:20:36.510Z,1.20
2018-06-22T07:23:04.168Z,1.77
2018-06-22T07:25:31.738Z,1.10
2018-06-22T07:27:59.586Z,1.30
2018-06-22T07:30:27.103Z,1.90
2018-06-22T07:32:54.915Z,1.00
2018-06-22T07:35:22.452Z,1.20
2018-06-22T07:37:49.996Z,1.20
2018-06-22T07:40:17.832Z,1.20
2018-06-22T07:42:58.861Z,1.45
2018-06-22T07:45:26.379Z,1.30
2018-06-22T07:47:53.897Z,1.35
2018-06-22T07:50:21.423Z,1.30
2018-06-22T07:52:48.942Z,1.27
2018-06-22T07:55:16.477Z,1.40
2018-06-22T07:57:43.991Z,1.12
2018-06-22T08:00:11.495Z,2.02
2018-06-22T08:02:39.021Z,1.12
2018-06-22T08:05:06.602Z,1.27
2018-06-22T08:07:34.114Z,1.50
2018-06-22T08:10:01.693Z,1.32
2018-06-22T08:12:29.265Z,1.70
2018-06-22T08:14:56.804Z,1.30
2018-06-22T08:17:24.339Z,1.40
2018-06-22T08:19:51.863Z,1.60
2018-06-22T08:22:19.407Z,1.30
2018-06-22T08:24:46.943Z,1.15
2018-06-22T08:27:14.532Z,1.40
2018-06-22T08:29:42.054Z,1.25
2018-06-22T08:32:09.591Z,1.22
2018-06-22T08:34:37.110Z,1.42
2018-06-22T08:37:04.723Z,1.72
2018-06-22T08:39:32.268Z,2.05
2018-06-22T08:41:59.901Z,1.60
2018-06-22T08:44:27.396Z,1.65
2018-06-22T08:46:54.918Z,1.82
2018-06-22T08:49:22.480Z,1.50
2018-06-22T08:51:50.017Z,1.98
2018-06-22T08:54:17.577Z,1.30
2018-06-22T08:56:45.127Z,1.45
2018-06-22T08:59:12.673Z,1.55
2018-06-22T09:01:40.219Z,1.62
2018-06-22T09:04:07.851Z,1.52
2018-06-22T09:06:35.398Z,1.80
2018-06-22T09:09:05.049Z,1.40
2018-06-22T09:11:32.578Z,1.47
2018-06-22T09:14:00.119Z,1.30
2018-06-22T09:16:27.655Z,1.42
2018-06-22T09:18:55.560Z,1.22
2018-06-22T09:21:23.092Z,1.40
2018-06-22T09:23:50.645Z,1.37
2018-06-22T09:26:18.171Z,1.70
2018-06-22T09:28:45.704Z,1.87
2018-06-22T09:31:13.252Z,1.75
2018-06-22T09:33:40.779Z,1.25
2018-06-22T09:36:08.316Z,1.22
2018-06-22T09:38:35.851Z,1.25
2018-06-22T09:41:03.400Z,1.20
2018-06-22T09:43:30.948Z,1.10
2018-06-22T09:45:58.487Z,1.15
2018-06-22T09:48:26.086Z,1.25
2018-06-22T09:50:53.560Z,1.25
2018-06-22T09:53:21.094Z,1.20
2018-06-22T09:55:48.679Z,1.10
2018-06-22T09:58:16.199Z,1.25
2018-06-22T10:00:49.683Z,1.00
2018-06-22T10:03:17.632Z,1.57
2018-06-22T10:05:45.336Z,1.50
2018-06-22T10:08:12.953Z,1.10
2018-06-22T10:10:40.452Z,1.17
2018-06-22T10:13:07.995Z,1.25
2018-06-22T10:15:35.630Z,1.22
2018-06-22T10:18:03.187Z,0.95
2018-06-22T10:20:31.251Z,1.40
2018-06-22T10:22:58.784Z,1.35
2018-06-22T10:25:26.430Z,0.93
2018-06-22T10:27:54.199Z,1.17
2018-06-22T10:30:21.955Z,1.15
2018-06-22T10:32:49.530Z,1.60
2018-06-22T10:35:17.050Z,1.27
2018-06-22T10:37:44.594Z,1.22
2018-06-22T10:40:12.150Z,1.20
2018-06-22T10:42:39.768Z,1.10
2018-06-22T10:45:07.331Z,1.20
2018-06-22T10:47:35.099Z,1.25
2018-06-22T10:50:02.689Z,1.30
2018-06-22T10:52:30.283Z,1.12
2018-06-22T10:54:57.843Z,1.00
2018-06-22T10:57:25.379Z,1.20
2018-06-22T10:59:53.029Z,1.00
2018-06-22T11:02:20.486Z,1.10
2018-06-22T11:04:48.055Z,1.25
2018-06-22T11:07:15.611Z,1.20
2018-06-22T11:09:43.140Z,0.80
2018-06-22T11:12:10.672Z,0.93
2018-06-22T11:14:38.192Z,0.95
2018-06-22T11:17:05.755Z,1.00
2018-06-22T11:19:33.263Z,0.98
2018-06-22T11:22:00.794Z,1.10
2018-06-22T11:24:28.375Z,1.20
2018-06-22T11:26:55.849Z,0.98
2018-06-22T11:29:23.375Z,1.22
2018-06-22T11:31:50.896Z,1.12
2018-06-22T11:34:18.432Z,0.90
2018-06-22T11:36:45.967Z,0.80
2018-06-22T11:39:13.487Z,0.70
2018-06-22T11:41:41.304Z,0.80
2018-06-22T11:44:09.279Z,0.95
2018-06-22T11:46:36.930Z,0.90
2018-06-22T11:49:04.491Z,0.62
2018-06-22T11:51:32.011Z,0.80
2018-06-22T11:53:59.553Z,0.80
2018-06-22T11:56:27.067Z,0.80
2018-06-22T11:58:54.595Z,0.90
2018-06-22T12:01:22.123Z,0.80
2018-06-22T12:03:49.652Z,0.80
2018-06-22T12:06:17.174Z,1.10
2018-06-22T12:08:44.713Z,1.47
2018-06-22T12:11:12.272Z,0.80
2018-06-22T12:13:39.827Z,1.10
2018-06-22T12:16:33.035Z,0.82
2018-06-22T12:19:00.699Z,0.93
2018-06-22T12:21:28.474Z,1.25
2018-06-22T12:23:56.093Z,1.62
2018-06-22T12:26:23.687Z,1.40
2018-06-22T12:28:51.232Z,1.50
2018-06-22T12:31:18.771Z,1.40
2018-06-22T12:45:57.887Z,1.20
2018-06-22T12:48:25.436Z,1.15
2018-06-22T12:50:52.987Z,1.37
2018-06-22T12:53:20.532Z,0.90
2018-06-22T12:55:48.081Z,1.00
2018-06-22T12:58:15.638Z,0.90
2018-06-22T13:00:43.183Z,1.00
2018-06-22T13:03:10.723Z,1.17
2018-06-22T13:05:38.275Z,1.07
2018-06-22T13:08:05.875Z,0.90
2018-06-22T13:10:33.457Z,0.85
2018-06-22T13:13:00.989Z,0.60
2018-06-22T13:15:28.564Z,0.60
2018-06-22T13:17:56.119Z,0.70
2018-06-22T13:20:23.892Z,0.88
2018-06-22T13:22:51.536Z,1.00
2018-06-22T13:25:19.216Z,1.00
2018-06-22T13:27:46.767Z,1.02
2018-06-22T13:30:14.333Z,1.25
2018-06-22T13:32:41.879Z,1.20
2018-06-22T13:35:09.430Z,1.10
2018-06-22T13:37:36.987Z,1.30
2018-06-22T13:40:04.803Z,1.40
2018-06-22T13:42:32.344Z,1.27
2018-06-22T13:44:59.891Z,1.10
2018-06-22T13:47:27.468Z,1.00
2018-06-22T13:49:55.024Z,1.10
2018-06-22T13:52:22.563Z,1.00
2018-06-22T13:54:50.107Z,0.80
2018-06-22T13:57:17.655Z,0.82
2018-06-22T13:59:45.206Z,0.95
2018-06-22T14:02:12.739Z,0.80
2018-06-22T14:04:46.014Z,0.80
2018-06-22T14:07:13.561Z,0.80
2018-06-22T14:09:41.839Z,0.60
2018-06-22T14:12:09.360Z,0.60
2018-06-22T14:14:36.900Z,0.65
2018-06-22T14:17:04.571Z,0.60
2018-06-22T14:19:32.109Z,0.80
2018-06-22T14:21:59.650Z,0.60
2018-06-22T14:24:27.163Z,0.50
2018-06-22T14:26:54.703Z,0.75
2018-06-22T14:29:22.243Z,0.60
2018-06-22T14:31:49.786Z,0.70
2018-06-22T14:34:17.319Z,0.60
2018-06-22T14:36:44.864Z,0.80
2018-06-22T14:39:12.396Z,0.60
2018-06-22T14:41:39.930Z,0.50
2018-06-22T14:44:07.499Z,0.70
2018-06-22T14:46:35.040Z,0.70
2018-06-22T14:49:02.567Z,0.82
2018-06-22T14:51:30.104Z,0.70
2018-06-22T14:54:03.510Z,0.90
2018-06-22T14:56:36.871Z,0.80
2018-06-22T14:59:10.283Z,0.82
2018-06-22T15:01:43.675Z,1.07
2018-06-22T15:04:16.964Z,1.12
2018-06-22T15:06:50.270Z,1.10
2018-06-22T15:09:17.812Z,1.07
2018-06-22T15:11:45.379Z,1.20
2018-06-22T15:14:12.918Z,1.30
2018-06-22T15:16:40.479Z,1.30
2018-06-22T15:19:08.036Z,1.10
2018-06-22T15:21:35.592Z,0.80
2018-06-22T15:24:09.616Z,0.80
2018-06-22T15:26:37.177Z,0.50
2018-06-22T15:29:04.779Z,0.60
2018-06-22T15:31:32.342Z,0.70
2018-06-22T15:34:05.830Z,0.82
2018-06-22T15:36:39.207Z,0.90
2018-06-22T15:39:14.048Z,0.72
2018-06-22T15:41:47.628Z,0.90
2018-06-22T15:44:20.867Z,0.90
2018-06-22T15:46:54.111Z,0.72
2018-06-22T15:49:27.475Z,0.85
2018-06-22T15:52:00.798Z,0.78
2018-06-22T15:54:34.048Z,0.80
2018-06-22T15:57:01.638Z,0.80
2018-06-22T15:59:29.195Z,0.70
2018-06-22T16:02:01.363Z,0.65
2018-06-22T16:04:28.925Z,0.80
2018-06-22T16:06:56.496Z,0.80
2018-06-22T16:09:24.051Z,0.90
2018-06-22T16:11:51.599Z,0.87
2018-06-22T16:14:24.832Z,0.63
2018-06-22T16:16:58.222Z,0.80
2018-06-22T16:19:31.590Z,0.70
2018-06-22T16:22:04.942Z,0.73
2018-06-22T16:24:38.189Z,0.87
2018-06-22T16:27:06.835Z,0.70
2018-06-22T16:29:34.388Z,0.80
2018-06-22T16:32:01.927Z,0.73
2018-06-22T16:34:29.461Z,1.07
2018-06-22T16:36:56.988Z,0.80
2018-06-22T16:39:24.704Z,0.80
2018-06-22T16:41:52.255Z,0.90
2018-06-22T16:44:19.786Z,1.10
2018-06-22T16:46:47.311Z,1.00
2018-06-22T16:49:14.825Z,1.00
2018-06-22T16:51:42.398Z,1.30
2018-06-22T16:54:09.904Z,1.27
2018-06-22T16:56:37.426Z,1.60
2018-06-22T16:59:04.975Z,1.20
2018-06-22T17:01:32.532Z,1.20
2018-06-22T17:04:00.072Z,1.50
2018-06-22T17:06:32.238Z,1.30
2018-06-22T17:09:05.788Z,1.27
2018-06-22T17:11:39.043Z,1.40
2018-06-22T17:14:12.332Z,1.53
2018-06-22T17:16:45.633Z,2.00
2018-06-22T17:19:20.181Z,1.70
2018-06-22T17:21:47.783Z,1.80
2018-06-22T17:24:15.344Z,2.23
2018-06-22T17:26:42.835Z,1.50
2018-06-22T17:29:10.353Z,2.43
2018-06-22T17:31:37.899Z,1.80
2018-06-22T17:34:05.439Z,1.50
2018-06-22T17:36:32.970Z,1.50
2018-06-22T17:39:00.508Z,1.27
2018-06-22T17:41:28.031Z,1.50
2018-06-22T17:43:55.558Z,1.97
2018-06-22T17:46:23.230Z,2.00
2018-06-22T17:48:50.695Z,1.97
2018-06-22T17:51:18.246Z,2.90
2018-06-22T17:53:45.777Z,3.67
2018-06-22T17:56:17.933Z,3.30
2018-06-22T17:58:51.220Z,5.37
2018-06-22T18:01:29.903Z,3.77
2018-06-22T18:04:03.215Z,3.83
2018-06-22T18:06:37.259Z,3.90
2018-06-22T18:09:07.790Z,3.20
2018-06-22T18:11:41.265Z,3.27
2018-06-22T18:14:08.819Z,3.97
2018-06-22T18:16:36.356Z,4.13
2018-06-22T18:19:03.959Z,4.00
2018-06-22T18:21:31.490Z,4.03
2018-06-22T18:23:59.033Z,4.33
2018-06-22T18:26:26.562Z,3.63
2018-06-22T18:28:54.099Z,3.27
2018-06-22T18:31:21.615Z,3.77
2018-06-22T18:33:49.159Z,3.47
2018-06-22T18:36:16.687Z,3.10
2018-06-22T18:38:44.211Z,3.20
2018-06-22T18:41:11.739Z,3.37
2018-06-22T18:44:44.657Z,3.10
2018-06-22T18:47:12.204Z,2.17
2018-06-22T18:49:39.746Z,3.17
2018-06-22T18:52:12.981Z,2.70
2018-06-22T18:54:46.232Z,2.20
2018-06-22T18:57:19.531Z,2.67
2018-06-22T18:59:51.059Z,2.30
2018-06-22T19:02:24.305Z,2.30
2018-06-22T19:04:51.874Z,2.33
2018-06-22T19:07:19.399Z,2.40
2018-06-22T19:09:46.930Z,2.47
2018-06-22T19:12:14.473Z,2.97
2018-06-22T19:14:41.996Z,3.50
2018-06-22T19:17:09.543Z,4.40
2018-06-22T19:19:37.082Z,4.43
2018-06-22T19:22:04.627Z,4.10
2018-06-22T19:24:32.171Z,3.57
2018-06-22T19:26:59.705Z,2.97
2018-06-22T19:29:27.230Z,3.00
2018-06-22T19:31:54.751Z,2.87
2018-06-22T19:34:28.105Z,3.03
2018-06-22T19:36:55.639Z,3.37
2018-06-22T19:39:23.184Z,3.20
2018-06-22T19:41:50.725Z,3.27
2018-06-22T19:44:24.058Z,3.70
2018-06-22T19:46:57.370Z,4.10
2018-06-22T19:49:30.652Z,4.33
2018-06-22T19:52:03.939Z,4.80
2018-06-22T19:54:31.558Z,4.70
2018-06-22T19:56:59.238Z,4.50
2018-06-22T19:59:27.027Z,5.00
2018-06-22T20:01:54.738Z,4.80
2018-06-22T20:04:22.527Z,4.47
2018-06-22T20:06:50.294Z,4.40
2018-06-22T20:09:17.999Z,4.63
2018-06-22T20:11:45.792Z,4.67
2018-06-22T20:14:24.536Z,4.83
2018-06-22T20:16:52.372Z,5.33
2018-06-22T20:19:20.320Z,5.63
2018-06-22T20:21:48.137Z,6.83
2018-06-22T20:24:20.528Z,6.33
2018-06-22T20:26:48.357Z,7.37
2018-06-22T20:29:16.140Z,7.73
2018-06-22T20:31:43.954Z,6.00
2018-06-22T20:34:17.606Z,5.37
2018-06-22T20:36:51.249Z,4.93
2018-06-22T20:39:24.869Z,5.90
2018-06-22T20:42:13.147Z,5.30
2018-06-22T20:44:50.683Z,4.33
2018-06-22T20:47:25.312Z,4.40
2018-06-22T20:49:58.951Z,3.60
2018-06-22T20:52:27.784Z,3.47
2018-06-22T20:54:55.604Z,4.07
2018-06-22T20:57:36.507Z,3.87
2018-06-22T21:06:05.376Z,3.97
2018-06-22T21:08:33.203Z,4.27
2018-06-22T21:11:00.915Z,4.90
2018-06-22T21:13:28.760Z,4.47
2018-06-22T21:15:56.527Z,4.70
2018-06-22T21:21:34.252Z,4.90
2018-06-22T21:24:21.367Z,5.10
2018-06-22T21:26:57.656Z,4.20
2018-06-22T21:29:31.280Z,4.63
2018-06-22T21:35:22.344Z,4.60
2018-06-22T21:37:56.034Z,5.27
2018-06-22T21:40:23.865Z,4.50
2018-06-22T21:42:51.635Z,5.37
2018-06-22T21:45:27.138Z,5.00
2018-06-22T21:47:55.066Z,5.10
2018-06-22T21:50:22.940Z,4.83
2018-06-22T21:56:04.111Z,5.10
2018-06-22T22:01:38.346Z,5.27
2018-06-22T22:04:11.717Z,4.90
2018-06-22T22:06:39.511Z,4.80
2018-06-22T22:09:08.542Z,5.37
2018-06-22T22:11:55.169Z,5.57
2018-06-22T22:14:24.560Z,6.20
2018-06-22T22:17:05.893Z,5.07
2018-06-22T22:19:33.869Z,5.97
2018-06-22T22:22:01.685Z,5.90
2018-06-22T22:24:30.588Z,6.17
2018-06-22T22:26:58.362Z,5.97
2018-06-22T22:29:26.188Z,5.87
2018-06-22T22:31:55.008Z,5.17
2018-06-22T22:34:22.832Z,5.07
2018-06-22T22:36:50.571Z,5.37
2018-06-22T22:39:18.359Z,4.50
2018-06-22T22:47:57.379Z,5.07
2018-06-22T22:50:25.184Z,4.37
2018-06-22T22:52:52.967Z,4.80
2018-06-22T22:55:20.818Z,4.13
2018-06-22T22:57:48.658Z,4.77
2018-06-22T23:00:16.476Z,4.50
2018-06-22T23:02:44.254Z,4.10
2018-06-22T23:05:12.008Z,4.13
2018-06-22T23:07:39.851Z,5.07
2018-06-22T23:10:07.747Z,4.47
2018-06-22T23:12:35.617Z,4.40
2018-06-22T23:15:03.606Z,4.20
2018-06-22T23:17:31.424Z,4.07
2018-06-22T23:19:59.158Z,4.40
2018-06-22T23:22:38.431Z,4.27
2018-06-22T23:25:06.174Z,4.60
2018-06-22T23:27:33.968Z,4.30
2018-06-22T23:30:01.789Z,3.80
2018-06-22T23:32:29.585Z,4.80
2018-06-22T23:34:57.520Z,4.70
2018-06-22T23:37:25.293Z,4.13
2018-06-22T23:39:53.047Z,3.87
2018-06-22T23:42:21.624Z,4.80
2018-06-22T23:44:49.392Z,3.60
2018-06-22T23:47:17.127Z,4.07
2018-06-22T23:49:44.935Z,3.50
2018-06-22T23:52:12.820Z,3.80
2018-06-22T23:54:40.551Z,3.90
2018-06-22T23:57:08.374Z,3.37
2018-06-22T23:59:36.195Z,3.37
